sensor_id;sensor_type;location;lat;lon;timestamp;P1;durP1;ratioP1;P2;durP2;ratioP2
49858;SDS011;35756;52.346;13.622;2023-05-07T00:00:05;15.18;;;11.40;;
49858;SDS011;35756;52.346;13.622;2023-05-07T00:02:34;16.67;;;11.85;;
49858;SDS011;35756;52.346;13.622;2023-05-07T00:05:00;19.67;;;12.30;;
49858;SDS011;35756;52.346;13.622;2023-05-07T00:07:27;18.27;;;11.88;;
49858;SDS011;35756;52.346;13.622;2023-05-07T00:09:52;15.77;;;10.88;;
49858;SDS011;35756;52.346;13.622;2023-05-07T00:12:17;17.40;;;10.90;;
49858;SDS011;35756;52.346;13.622;2023-05-07T00:14:43;17.05;;;11.50;;
49858;SDS011;35756;52.346;13.622;2023-05-07T00:17:08;15.32;;;10.80;;
49858;SDS011;35756;52.346;13.622;2023-05-07T00:19:33;16.75;;;11.27;;
49858;SDS011;35756;52.346;13.622;2023-05-07T00:21:58;16.55;;;11.40;;
49858;SDS011;35756;52.346;13.622;2023-05-07T00:24:24;18.13;;;11.52;;
49858;SDS011;35756;52.346;13.622;2023-05-07T00:26:49;17.48;;;11.00;;
49858;SDS011;35756;52.346;13.622;2023-05-07T00:29:15;15.20;;;11.05;;
49858;SDS011;35756;52.346;13.622;2023-05-07T00:31:40;15.27;;;10.27;;
49858;SDS011;35756;52.346;13.622;2023-05-07T00:34:05;17.77;;;10.43;;
49858;SDS011;35756;52.346;13.622;2023-05-07T00:36:31;14.68;;;10.10;;
49858;SDS011;35756;52.346;13.622;2023-05-07T00:38:56;16.52;;;10.02;;
49858;SDS011;35756;52.346;13.622;2023-05-07T00:41:24;15.48;;;10.45;;
49858;SDS011;35756;52.346;13.622;2023-05-07T00:43:50;16.08;;;9.60;;
49858;SDS011;35756;52.346;13.622;2023-05-07T00:46:16;14.43;;;9.98;;
49858;SDS011;35756;52.346;13.622;2023-05-07T00:48:41;13.73;;;9.65;;
49858;SDS011;35756;52.346;13.622;2023-05-07T00:51:07;11.88;;;9.35;;
49858;SDS011;35756;52.346;13.622;2023-05-07T00:53:32;12.73;;;8.55;;
49858;SDS011;35756;52.346;13.622;2023-05-07T00:55:58;12.80;;;9.15;;
49858;SDS011;35756;52.346;13.622;2023-05-07T00:58:23;13.07;;;8.77;;
49858;SDS011;35756;52.346;13.622;2023-05-07T01:00:48;14.77;;;9.10;;
49858;SDS011;35756;52.346;13.622;2023-05-07T01:03:14;12.98;;;9.52;;
49858;SDS011;35756;52.346;13.622;2023-05-07T01:05:39;12.90;;;9.63;;
49858;SDS011;35756;52.346;13.622;2023-05-07T01:08:04;13.10;;;9.93;;
49858;SDS011;35756;52.346;13.622;2023-05-07T01:10:30;16.00;;;10.30;;
49858;SDS011;35756;52.346;13.622;2023-05-07T01:12:55;13.90;;;10.10;;
49858;SDS011;35756;52.346;13.622;2023-05-07T01:15:22;15.10;;;10.15;;
49858;SDS011;35756;52.346;13.622;2023-05-07T01:17:48;13.30;;;9.63;;
49858;SDS011;35756;52.346;13.622;2023-05-07T01:20:13;17.63;;;10.18;;
49858;SDS011;35756;52.346;13.622;2023-05-07T01:22:39;17.92;;;9.80;;
49858;SDS011;35756;52.346;13.622;2023-05-07T01:25:05;16.77;;;10.50;;
49858;SDS011;35756;52.346;13.622;2023-05-07T01:27:31;14.77;;;9.88;;
49858;SDS011;35756;52.346;13.622;2023-05-07T01:29:58;14.70;;;9.40;;
49858;SDS011;35756;52.346;13.622;2023-05-07T01:32:37;12.95;;;9.15;;
49858;SDS011;35756;52.346;13.622;2023-05-07T01:35:07;13.30;;;9.10;;
49858;SDS011;35756;52.346;13.622;2023-05-07T01:37:35;18.63;;;9.32;;
49858;SDS011;35756;52.346;13.622;2023-05-07T01:40:01;15.10;;;9.60;;
49858;SDS011;35756;52.346;13.622;2023-05-07T01:42:27;11.93;;;8.57;;
49858;SDS011;35756;52.346;13.622;2023-05-07T01:44:53;11.65;;;8.45;;
49858;SDS011;35756;52.346;13.622;2023-05-07T01:47:18;12.32;;;8.38;;
49858;SDS011;35756;52.346;13.622;2023-05-07T01:49:44;13.85;;;8.68;;
49858;SDS011;35756;52.346;13.622;2023-05-07T01:52:10;12.65;;;8.25;;
49858;SDS011;35756;52.346;13.622;2023-05-07T01:54:36;11.98;;;7.97;;
49858;SDS011;35756;52.346;13.622;2023-05-07T01:57:01;13.23;;;9.23;;
49858;SDS011;35756;52.346;13.622;2023-05-07T01:59:26;11.98;;;8.80;;
49858;SDS011;35756;52.346;13.622;2023-05-07T02:01:52;13.93;;;9.15;;
49858;SDS011;35756;52.346;13.622;2023-05-07T02:04:17;15.73;;;9.48;;
49858;SDS011;35756;52.346;13.622;2023-05-07T02:06:42;13.48;;;9.40;;
49858;SDS011;35756;52.346;13.622;2023-05-07T02:09:07;13.15;;;9.18;;
49858;SDS011;35756;52.346;13.622;2023-05-07T02:11:33;14.48;;;8.80;;
49858;SDS011;35756;52.346;13.622;2023-05-07T02:13:59;12.23;;;8.73;;
49858;SDS011;35756;52.346;13.622;2023-05-07T02:16:24;13.13;;;8.93;;
49858;SDS011;35756;52.346;13.622;2023-05-07T02:18:49;13.52;;;9.93;;
49858;SDS011;35756;52.346;13.622;2023-05-07T02:21:15;14.65;;;9.23;;
49858;SDS011;35756;52.346;13.622;2023-05-07T02:23:40;16.45;;;9.75;;
49858;SDS011;35756;52.346;13.622;2023-05-07T02:26:05;14.88;;;9.55;;
49858;SDS011;35756;52.346;13.622;2023-05-07T02:28:31;13.98;;;9.60;;
49858;SDS011;35756;52.346;13.622;2023-05-07T02:30:56;15.18;;;9.52;;
49858;SDS011;35756;52.346;13.622;2023-05-07T02:33:23;14.40;;;10.00;;
49858;SDS011;35756;52.346;13.622;2023-05-07T02:35:48;16.10;;;10.70;;
49858;SDS011;35756;52.346;13.622;2023-05-07T02:38:14;15.00;;;10.52;;
49858;SDS011;35756;52.346;13.622;2023-05-07T02:40:39;13.45;;;9.75;;
49858;SDS011;35756;52.346;13.622;2023-05-07T02:43:05;16.33;;;10.82;;
49858;SDS011;35756;52.346;13.622;2023-05-07T02:45:30;15.20;;;10.20;;
49858;SDS011;35756;52.346;13.622;2023-05-07T02:47:56;13.65;;;10.05;;
49858;SDS011;35756;52.346;13.622;2023-05-07T02:50:21;14.13;;;10.65;;
49858;SDS011;35756;52.346;13.622;2023-05-07T02:52:47;14.77;;;10.88;;
49858;SDS011;35756;52.346;13.622;2023-05-07T02:55:12;17.00;;;10.77;;
49858;SDS011;35756;52.346;13.622;2023-05-07T02:57:37;15.32;;;10.25;;
49858;SDS011;35756;52.346;13.622;2023-05-07T03:00:13;19.67;;;12.02;;
49858;SDS011;35756;52.346;13.622;2023-05-07T03:02:39;15.02;;;10.18;;
49858;SDS011;35756;52.346;13.622;2023-05-07T03:05:05;16.77;;;10.63;;
49858;SDS011;35756;52.346;13.622;2023-05-07T03:07:31;14.77;;;10.93;;
49858;SDS011;35756;52.346;13.622;2023-05-07T03:09:56;16.52;;;11.07;;
49858;SDS011;35756;52.346;13.622;2023-05-07T03:12:21;16.25;;;10.82;;
49858;SDS011;35756;52.346;13.622;2023-05-07T03:14:46;17.67;;;10.90;;
49858;SDS011;35756;52.346;13.622;2023-05-07T03:17:12;16.25;;;10.95;;
49858;SDS011;35756;52.346;13.622;2023-05-07T03:19:37;15.13;;;10.45;;
49858;SDS011;35756;52.346;13.622;2023-05-07T03:22:02;13.90;;;10.00;;
49858;SDS011;35756;52.346;13.622;2023-05-07T03:24:27;15.80;;;11.32;;
49858;SDS011;35756;52.346;13.622;2023-05-07T03:26:53;17.75;;;11.35;;
49858;SDS011;35756;52.346;13.622;2023-05-07T03:29:18;16.33;;;10.15;;
49858;SDS011;35756;52.346;13.622;2023-05-07T03:31:43;15.00;;;11.20;;
49858;SDS011;35756;52.346;13.622;2023-05-07T03:34:09;14.77;;;10.40;;
49858;SDS011;35756;52.346;13.622;2023-05-07T03:36:34;18.55;;;11.60;;
49858;SDS011;35756;52.346;13.622;2023-05-07T03:38:59;14.10;;;10.40;;
49858;SDS011;35756;52.346;13.622;2023-05-07T03:41:26;16.33;;;11.75;;
49858;SDS011;35756;52.346;13.622;2023-05-07T03:43:51;17.25;;;11.43;;
49858;SDS011;35756;52.346;13.622;2023-05-07T03:46:16;18.30;;;11.77;;
49858;SDS011;35756;52.346;13.622;2023-05-07T03:48:41;17.33;;;12.02;;
49858;SDS011;35756;52.346;13.622;2023-05-07T03:51:07;18.63;;;12.32;;
49858;SDS011;35756;52.346;13.622;2023-05-07T03:53:32;15.75;;;11.20;;
49858;SDS011;35756;52.346;13.622;2023-05-07T03:55:57;17.88;;;11.02;;
49858;SDS011;35756;52.346;13.622;2023-05-07T03:58:22;15.60;;;11.63;;
49858;SDS011;35756;52.346;13.622;2023-05-07T04:00:48;16.83;;;12.27;;
49858;SDS011;35756;52.346;13.622;2023-05-07T04:03:13;14.70;;;10.35;;
49858;SDS011;35756;52.346;13.622;2023-05-07T04:05:39;13.70;;;10.65;;
49858;SDS011;35756;52.346;13.622;2023-05-07T04:08:04;14.50;;;10.60;;
49858;SDS011;35756;52.346;13.622;2023-05-07T04:10:30;14.75;;;9.98;;
49858;SDS011;35756;52.346;13.622;2023-05-07T04:12:55;14.18;;;10.90;;
49858;SDS011;35756;52.346;13.622;2023-05-07T04:15:21;15.63;;;10.10;;
49858;SDS011;35756;52.346;13.622;2023-05-07T04:17:47;17.25;;;10.00;;
49858;SDS011;35756;52.346;13.622;2023-05-07T04:20:14;16.92;;;10.75;;
49858;SDS011;35756;52.346;13.622;2023-05-07T04:22:40;17.52;;;10.75;;
49858;SDS011;35756;52.346;13.622;2023-05-07T04:25:05;14.00;;;10.45;;
49858;SDS011;35756;52.346;13.622;2023-05-07T04:27:31;14.48;;;9.60;;
49858;SDS011;35756;52.346;13.622;2023-05-07T04:29:57;13.73;;;9.65;;
49858;SDS011;35756;52.346;13.622;2023-05-07T04:32:22;13.98;;;10.30;;
49858;SDS011;35756;52.346;13.622;2023-05-07T04:34:49;16.02;;;9.63;;
49858;SDS011;35756;52.346;13.622;2023-05-07T04:37:15;15.85;;;9.38;;
49858;SDS011;35756;52.346;13.622;2023-05-07T04:39:40;12.82;;;9.48;;
49858;SDS011;35756;52.346;13.622;2023-05-07T04:42:05;13.65;;;9.68;;
49858;SDS011;35756;52.346;13.622;2023-05-07T04:44:33;13.57;;;9.10;;
49858;SDS011;35756;52.346;13.622;2023-05-07T04:46:59;14.10;;;9.50;;
49858;SDS011;35756;52.346;13.622;2023-05-07T04:49:24;16.45;;;9.88;;
49858;SDS011;35756;52.346;13.622;2023-05-07T04:51:49;12.23;;;8.93;;
49858;SDS011;35756;52.346;13.622;2023-05-07T04:54:15;15.75;;;9.23;;
49858;SDS011;35756;52.346;13.622;2023-05-07T04:56:40;14.57;;;10.70;;
49858;SDS011;35756;52.346;13.622;2023-05-07T04:59:06;14.25;;;9.35;;
49858;SDS011;35756;52.346;13.622;2023-05-07T05:01:31;13.88;;;9.32;;
49858;SDS011;35756;52.346;13.622;2023-05-07T05:03:56;14.80;;;9.15;;
49858;SDS011;35756;52.346;13.622;2023-05-07T05:06:22;12.55;;;8.55;;
49858;SDS011;35756;52.346;13.622;2023-05-07T05:08:47;16.30;;;8.55;;
49858;SDS011;35756;52.346;13.622;2023-05-07T05:11:12;12.52;;;8.55;;
49858;SDS011;35756;52.346;13.622;2023-05-07T05:13:38;11.98;;;8.75;;
49858;SDS011;35756;52.346;13.622;2023-05-07T05:16:03;13.95;;;7.97;;
49858;SDS011;35756;52.346;13.622;2023-05-07T05:18:28;12.68;;;8.10;;
49858;SDS011;35756;52.346;13.622;2023-05-07T05:20:54;12.65;;;7.88;;
49858;SDS011;35756;52.346;13.622;2023-05-07T05:23:19;14.73;;;8.80;;
49858;SDS011;35756;52.346;13.622;2023-05-07T05:25:45;11.82;;;7.47;;
49858;SDS011;35756;52.346;13.622;2023-05-07T05:28:10;15.00;;;7.60;;
49858;SDS011;35756;52.346;13.622;2023-05-07T05:30:35;13.15;;;7.30;;
49858;SDS011;35756;52.346;13.622;2023-05-07T05:33:01;12.23;;;9.13;;
49858;SDS011;35756;52.346;13.622;2023-05-07T05:35:26;9.93;;;7.13;;
49858;SDS011;35756;52.346;13.622;2023-05-07T05:37:51;11.95;;;7.07;;
49858;SDS011;35756;52.346;13.622;2023-05-07T05:40:16;10.68;;;7.07;;
49858;SDS011;35756;52.346;13.622;2023-05-07T05:42:42;9.65;;;6.68;;
49858;SDS011;35756;52.346;13.622;2023-05-07T05:45:07;9.00;;;6.43;;
49858;SDS011;35756;52.346;13.622;2023-05-07T05:47:33;9.45;;;6.63;;
49858;SDS011;35756;52.346;13.622;2023-05-07T05:49:58;10.10;;;8.77;;
49858;SDS011;35756;52.346;13.622;2023-05-07T05:52:24;11.73;;;9.02;;
49858;SDS011;35756;52.346;13.622;2023-05-07T05:54:49;10.20;;;7.68;;
49858;SDS011;35756;52.346;13.622;2023-05-07T05:57:15;9.05;;;7.18;;
49858;SDS011;35756;52.346;13.622;2023-05-07T05:59:40;13.18;;;10.82;;
49858;SDS011;35756;52.346;13.622;2023-05-07T06:02:05;11.25;;;7.35;;
49858;SDS011;35756;52.346;13.622;2023-05-07T06:04:31;10.70;;;8.00;;
49858;SDS011;35756;52.346;13.622;2023-05-07T06:06:56;10.20;;;8.45;;
49858;SDS011;35756;52.346;13.622;2023-05-07T06:09:22;9.80;;;7.75;;
49858;SDS011;35756;52.346;13.622;2023-05-07T06:11:47;10.32;;;8.23;;
49858;SDS011;35756;52.346;13.622;2023-05-07T06:14:12;10.80;;;8.18;;
49858;SDS011;35756;52.346;13.622;2023-05-07T06:16:37;20.02;;;18.17;;
49858;SDS011;35756;52.346;13.622;2023-05-07T06:19:03;10.07;;;6.97;;
49858;SDS011;35756;52.346;13.622;2023-05-07T06:21:28;10.52;;;8.77;;
49858;SDS011;35756;52.346;13.622;2023-05-07T06:23:53;11.95;;;9.25;;
49858;SDS011;35756;52.346;13.622;2023-05-07T06:26:19;11.07;;;9.05;;
49858;SDS011;35756;52.346;13.622;2023-05-07T06:28:45;11.23;;;8.75;;
49858;SDS011;35756;52.346;13.622;2023-05-07T06:31:11;11.13;;;8.68;;
49858;SDS011;35756;52.346;13.622;2023-05-07T06:33:40;10.77;;;9.18;;
49858;SDS011;35756;52.346;13.622;2023-05-07T06:36:05;11.02;;;8.35;;
49858;SDS011;35756;52.346;13.622;2023-05-07T06:38:31;9.38;;;6.80;;
49858;SDS011;35756;52.346;13.622;2023-05-07T06:40:56;12.27;;;10.20;;
49858;SDS011;35756;52.346;13.622;2023-05-07T06:43:22;10.40;;;8.52;;
49858;SDS011;35756;52.346;13.622;2023-05-07T06:45:47;12.15;;;10.88;;
49858;SDS011;35756;52.346;13.622;2023-05-07T06:48:12;13.52;;;10.70;;
49858;SDS011;35756;52.346;13.622;2023-05-07T06:50:37;11.82;;;9.32;;
49858;SDS011;35756;52.346;13.622;2023-05-07T06:53:03;11.57;;;9.30;;
49858;SDS011;35756;52.346;13.622;2023-05-07T06:55:28;10.68;;;9.13;;
49858;SDS011;35756;52.346;13.622;2023-05-07T06:57:53;11.65;;;10.43;;
49858;SDS011;35756;52.346;13.622;2023-05-07T07:00:19;10.75;;;9.65;;
49858;SDS011;35756;52.346;13.622;2023-05-07T07:02:44;13.35;;;11.82;;
49858;SDS011;35756;52.346;13.622;2023-05-07T07:05:10;11.90;;;10.55;;
49858;SDS011;35756;52.346;13.622;2023-05-07T07:07:35;12.80;;;10.57;;
49858;SDS011;35756;52.346;13.622;2023-05-07T07:10:00;10.50;;;8.85;;
49858;SDS011;35756;52.346;13.622;2023-05-07T07:12:25;11.57;;;10.30;;
49858;SDS011;35756;52.346;13.622;2023-05-07T07:14:51;25.60;;;23.90;;
49858;SDS011;35756;52.346;13.622;2023-05-07T07:17:16;164.43;;;156.88;;
49858;SDS011;35756;52.346;13.622;2023-05-07T07:19:41;78.68;;;74.72;;
49858;SDS011;35756;52.346;13.622;2023-05-07T07:22:07;71.53;;;67.05;;
49858;SDS011;35756;52.346;13.622;2023-05-07T07:24:32;326.55;;;311.73;;
49858;SDS011;35756;52.346;13.622;2023-05-07T07:26:57;279.30;;;266.67;;
49858;SDS011;35756;52.346;13.622;2023-05-07T07:29:22;358.33;;;342.40;;
49858;SDS011;35756;52.346;13.622;2023-05-07T07:31:48;396.10;;;376.83;;
49858;SDS011;35756;52.346;13.622;2023-05-07T07:34:14;256.70;;;243.73;;
49858;SDS011;35756;52.346;13.622;2023-05-07T07:36:40;708.65;;;669.53;;
49858;SDS011;35756;52.346;13.622;2023-05-07T07:39:05;240.93;;;229.48;;
49858;SDS011;35756;52.346;13.622;2023-05-07T07:41:31;199.82;;;190.32;;
49858;SDS011;35756;52.346;13.622;2023-05-07T07:43:56;765.78;;;720.20;;
49858;SDS011;35756;52.346;13.622;2023-05-07T07:46:21;756.72;;;712.47;;
49858;SDS011;35756;52.346;13.622;2023-05-07T07:48:46;793.90;;;746.10;;
49858;SDS011;35756;52.346;13.622;2023-05-07T07:51:12;367.52;;;349.85;;
49858;SDS011;35756;52.346;13.622;2023-05-07T07:53:37;501.33;;;476.08;;
49858;SDS011;35756;52.346;13.622;2023-05-07T07:56:02;525.08;;;498.75;;
49858;SDS011;35756;52.346;13.622;2023-05-07T07:58:28;281.52;;;267.70;;
49858;SDS011;35756;52.346;13.622;2023-05-07T08:00:53;505.20;;;479.67;;
49858;SDS011;35756;52.346;13.622;2023-05-07T08:03:20;616.25;;;583.67;;
49858;SDS011;35756;52.346;13.622;2023-05-07T08:05:46;746.65;;;703.65;;
49858;SDS011;35756;52.346;13.622;2023-05-07T08:08:11;686.25;;;648.17;;
49858;SDS011;35756;52.346;13.622;2023-05-07T08:10:36;889.80;;;832.38;;
49858;SDS011;35756;52.346;13.622;2023-05-07T08:13:03;761.08;;;716.03;;
49858;SDS011;35756;52.346;13.622;2023-05-07T08:15:29;541.40;;;513.95;;
49858;SDS011;35756;52.346;13.622;2023-05-07T08:17:54;631.40;;;597.30;;
49858;SDS011;35756;52.346;13.622;2023-05-07T08:20:22;818.97;;;763.42;;
49858;SDS011;35756;52.346;13.622;2023-05-07T08:22:47;838.55;;;784.97;;
49858;SDS011;35756;52.346;13.622;2023-05-07T08:25:12;782.13;;;736.22;;
49858;SDS011;35756;52.346;13.622;2023-05-07T08:27:38;844.80;;;792.50;;
49858;SDS011;35756;52.346;13.622;2023-05-07T08:30:03;924.35;;;858.33;;
49858;SDS011;35756;52.346;13.622;2023-05-07T08:32:29;840.20;;;787.15;;
49858;SDS011;35756;52.346;13.622;2023-05-07T08:34:54;982.03;;;911.90;;
49858;SDS011;35756;52.346;13.622;2023-05-07T08:37:19;1020.53;;;944.30;;
49858;SDS011;35756;52.346;13.622;2023-05-07T08:39:45;1000.90;;;923.83;;
49858;SDS011;35756;52.346;13.622;2023-05-07T08:42:10;1179.03;;;999.90;;
49858;SDS011;35756;52.346;13.622;2023-05-07T08:44:36;1164.78;;;999.90;;
49858;SDS011;35756;52.346;13.622;2023-05-07T08:47:03;1085.25;;;999.28;;
49858;SDS011;35756;52.346;13.622;2023-05-07T08:49:31;1368.22;;;999.90;;
49858;SDS011;35756;52.346;13.622;2023-05-07T08:51:56;1223.30;;;999.90;;
49858;SDS011;35756;52.346;13.622;2023-05-07T08:54:21;1212.43;;;999.90;;
49858;SDS011;35756;52.346;13.622;2023-05-07T08:56:47;1347.05;;;999.90;;
49858;SDS011;35756;52.346;13.622;2023-05-07T08:59:12;977.22;;;901.67;;
49858;SDS011;35756;52.346;13.622;2023-05-07T09:01:38;1238.88;;;999.90;;
49858;SDS011;35756;52.346;13.622;2023-05-07T09:04:03;1262.20;;;999.90;;
49858;SDS011;35756;52.346;13.622;2023-05-07T09:06:29;1177.10;;;999.90;;
49858;SDS011;35756;52.346;13.622;2023-05-07T09:08:55;1300.20;;;999.90;;
49858;SDS011;35756;52.346;13.622;2023-05-07T09:11:21;1246.13;;;999.90;;
49858;SDS011;35756;52.346;13.622;2023-05-07T09:13:47;1225.35;;;999.90;;
49858;SDS011;35756;52.346;13.622;2023-05-07T09:16:13;1171.65;;;999.90;;
49858;SDS011;35756;52.346;13.622;2023-05-07T09:18:43;755.08;;;695.53;;
49858;SDS011;35756;52.346;13.622;2023-05-07T09:21:14;852.38;;;779.97;;
49858;SDS011;35756;52.346;13.622;2023-05-07T09:23:40;693.03;;;636.17;;
49858;SDS011;35756;52.346;13.622;2023-05-07T09:26:06;644.78;;;593.40;;
49858;SDS011;35756;52.346;13.622;2023-05-07T09:28:37;772.45;;;707.20;;
49858;SDS011;35756;52.346;13.622;2023-05-07T09:31:03;625.28;;;579.72;;
49858;SDS011;35756;52.346;13.622;2023-05-07T09:33:28;696.33;;;644.65;;
49858;SDS011;35756;52.346;13.622;2023-05-07T09:35:55;826.08;;;758.60;;
49858;SDS011;35756;52.346;13.622;2023-05-07T09:38:20;1046.50;;;944.88;;
49858;SDS011;35756;52.346;13.622;2023-05-07T09:40:46;827.58;;;757.83;;
49858;SDS011;35756;52.346;13.622;2023-05-07T09:43:12;815.85;;;749.13;;
49858;SDS011;35756;52.346;13.622;2023-05-07T09:45:38;678.00;;;626.97;;
49858;SDS011;35756;52.346;13.622;2023-05-07T09:48:04;731.92;;;671.88;;
49858;SDS011;35756;52.346;13.622;2023-05-07T09:50:38;978.45;;;881.72;;
49858;SDS011;35756;52.346;13.622;2023-05-07T09:53:10;647.05;;;598.53;;
49858;SDS011;35756;52.346;13.622;2023-05-07T09:55:36;619.45;;;573.05;;
49858;SDS011;35756;52.346;13.622;2023-05-07T09:58:02;841.35;;;766.13;;
49858;SDS011;35756;52.346;13.622;2023-05-07T10:00:29;1429.93;;;999.72;;
49858;SDS011;35756;52.346;13.622;2023-05-07T10:02:54;1027.50;;;937.47;;
49858;SDS011;35756;52.346;13.622;2023-05-07T10:05:22;979.72;;;892.88;;
49858;SDS011;35756;52.346;13.622;2023-05-07T10:07:47;800.78;;;734.50;;
49858;SDS011;35756;52.346;13.622;2023-05-07T10:10:13;800.08;;;739.47;;
49858;SDS011;35756;52.346;13.622;2023-05-07T10:12:40;959.88;;;877.33;;
49858;SDS011;35756;52.346;13.622;2023-05-07T10:15:06;871.67;;;805.15;;
49858;SDS011;35756;52.346;13.622;2023-05-07T10:17:31;723.25;;;667.85;;
49858;SDS011;35756;52.346;13.622;2023-05-07T10:19:57;808.00;;;743.40;;
49858;SDS011;35756;52.346;13.622;2023-05-07T10:22:22;887.35;;;816.67;;
49858;SDS011;35756;52.346;13.622;2023-05-07T10:24:49;754.30;;;699.08;;
49858;SDS011;35756;52.346;13.622;2023-05-07T10:27:17;848.17;;;771.20;;
49858;SDS011;35756;52.346;13.622;2023-05-07T10:29:51;750.88;;;690.17;;
49858;SDS011;35756;52.346;13.622;2023-05-07T10:32:35;729.58;;;671.13;;
49858;SDS011;35756;52.346;13.622;2023-05-07T10:35:04;982.20;;;866.38;;
49858;SDS011;35756;52.346;13.622;2023-05-07T10:37:33;733.88;;;670.50;;
49858;SDS011;35756;52.346;13.622;2023-05-07T10:39:58;1389.75;;;974.70;;
49858;SDS011;35756;52.346;13.622;2023-05-07T10:42:24;668.35;;;613.35;;
49858;SDS011;35756;52.346;13.622;2023-05-07T10:44:49;931.15;;;834.60;;
49858;SDS011;35756;52.346;13.622;2023-05-07T10:47:15;805.50;;;731.80;;
49858;SDS011;35756;52.346;13.622;2023-05-07T10:52:13;991.67;;;744.63;;
49858;SDS011;35756;52.346;13.622;2023-05-07T10:54:40;911.55;;;820.00;;
49858;SDS011;35756;52.346;13.622;2023-05-07T10:57:39;770.83;;;703.25;;
49858;SDS011;35756;52.346;13.622;2023-05-07T11:00:01;688.72;;;633.50;;
49858;SDS011;35756;52.346;13.622;2023-05-07T11:03:04;739.20;;;677.35;;
49858;SDS011;35756;52.346;13.622;2023-05-07T11:05:28;771.90;;;700.05;;
49858;SDS011;35756;52.346;13.622;2023-05-07T11:07:55;1936.15;;;999.90;;
49858;SDS011;35756;52.346;13.622;2023-05-07T11:10:21;1239.18;;;992.33;;
49858;SDS011;35756;52.346;13.622;2023-05-07T11:12:47;742.53;;;684.58;;
49858;SDS011;35756;52.346;13.622;2023-05-07T11:15:13;1255.80;;;969.78;;
49858;SDS011;35756;52.346;13.622;2023-05-07T11:17:52;1740.00;;;999.90;;
49858;SDS011;35756;52.346;13.622;2023-05-07T11:20:18;1837.05;;;999.90;;
49858;SDS011;35756;52.346;13.622;2023-05-07T11:22:44;1992.75;;;999.90;;
49858;SDS011;35756;52.346;13.622;2023-05-07T11:25:09;1807.15;;;999.90;;
49858;SDS011;35756;52.346;13.622;2023-05-07T11:27:35;1694.18;;;999.90;;
49858;SDS011;35756;52.346;13.622;2023-05-07T11:30:00;1999.90;;;999.90;;
49858;SDS011;35756;52.346;13.622;2023-05-07T11:32:30;1821.45;;;999.90;;
49858;SDS011;35756;52.346;13.622;2023-05-07T11:34:56;1993.60;;;999.90;;
49858;SDS011;35756;52.346;13.622;2023-05-07T11:37:23;1999.90;;;999.90;;
49858;SDS011;35756;52.346;13.622;2023-05-07T11:39:49;1999.90;;;999.90;;
49858;SDS011;35756;52.346;13.622;2023-05-07T11:42:27;1376.05;;;999.90;;
49858;SDS011;35756;52.346;13.622;2023-05-07T11:44:53;1999.90;;;999.90;;
49858;SDS011;35756;52.346;13.622;2023-05-07T11:47:19;1999.90;;;999.90;;
49858;SDS011;35756;52.346;13.622;2023-05-07T11:49:48;1971.80;;;999.90;;
49858;SDS011;35756;52.346;13.622;2023-05-07T11:52:14;1999.90;;;999.90;;
49858;SDS011;35756;52.346;13.622;2023-05-07T11:54:40;1999.90;;;999.90;;
49858;SDS011;35756;52.346;13.622;2023-05-07T11:57:05;1103.00;;;941.90;;
49858;SDS011;35756;52.346;13.622;2023-05-07T11:59:38;988.92;;;882.38;;
49858;SDS011;35756;52.346;13.622;2023-05-07T12:02:05;1958.28;;;999.90;;
49858;SDS011;35756;52.346;13.622;2023-05-07T12:04:31;1999.90;;;999.90;;
49858;SDS011;35756;52.346;13.622;2023-05-07T12:06:56;1855.75;;;999.90;;
49858;SDS011;35756;52.346;13.622;2023-05-07T12:09:21;1999.90;;;999.90;;
49858;SDS011;35756;52.346;13.622;2023-05-07T12:11:47;1999.90;;;999.90;;
49858;SDS011;35756;52.346;13.622;2023-05-07T12:14:12;1999.90;;;999.90;;
49858;SDS011;35756;52.346;13.622;2023-05-07T12:16:38;1999.90;;;999.90;;
49858;SDS011;35756;52.346;13.622;2023-05-07T12:19:05;1776.55;;;865.20;;
49858;SDS011;35756;52.346;13.622;2023-05-07T12:21:33;1999.90;;;999.90;;
49858;SDS011;35756;52.346;13.622;2023-05-07T12:23:58;1999.90;;;999.42;;
49858;SDS011;35756;52.346;13.622;2023-05-07T12:26:23;1951.13;;;898.88;;
49858;SDS011;35756;52.346;13.622;2023-05-07T12:28:50;1804.70;;;999.90;;
49858;SDS011;35756;52.346;13.622;2023-05-07T12:31:17;1999.90;;;996.45;;
49858;SDS011;35756;52.346;13.622;2023-05-07T12:33:42;1555.32;;;637.13;;
49858;SDS011;35756;52.346;13.622;2023-05-07T12:36:08;1466.88;;;663.35;;
49858;SDS011;35756;52.346;13.622;2023-05-07T12:38:34;1868.63;;;902.03;;
49858;SDS011;35756;52.346;13.622;2023-05-07T12:41:00;1715.03;;;726.60;;
49858;SDS011;35756;52.346;13.622;2023-05-07T12:43:27;1999.90;;;999.90;;
49858;SDS011;35756;52.346;13.622;2023-05-07T12:45:53;1999.90;;;998.58;;
49858;SDS011;35756;52.346;13.622;2023-05-07T12:48:20;1999.90;;;999.90;;
49858;SDS011;35756;52.346;13.622;2023-05-07T12:50:48;1473.93;;;629.72;;
49858;SDS011;35756;52.346;13.622;2023-05-07T12:53:19;1999.90;;;999.90;;
49858;SDS011;35756;52.346;13.622;2023-05-07T12:55:46;1999.90;;;999.90;;
49858;SDS011;35756;52.346;13.622;2023-05-07T12:58:32;1999.90;;;999.90;;
49858;SDS011;35756;52.346;13.622;2023-05-07T13:00:59;1575.88;;;772.72;;
49858;SDS011;35756;52.346;13.622;2023-05-07T13:03:27;1999.90;;;932.75;;
49858;SDS011;35756;52.346;13.622;2023-05-07T13:05:55;1610.95;;;756.83;;
49858;SDS011;35756;52.346;13.622;2023-05-07T13:08:29;1607.07;;;758.10;;
49858;SDS011;35756;52.346;13.622;2023-05-07T13:10:57;1261.65;;;531.25;;
49858;SDS011;35756;52.346;13.622;2023-05-07T13:13:22;1831.63;;;928.97;;
49858;SDS011;35756;52.346;13.622;2023-05-07T13:15:48;1986.32;;;971.67;;
49858;SDS011;35756;52.346;13.622;2023-05-07T13:18:14;1999.90;;;999.90;;
49858;SDS011;35756;52.346;13.622;2023-05-07T13:20:39;1999.90;;;999.90;;
49858;SDS011;35756;52.346;13.622;2023-05-07T13:23:05;1999.90;;;999.90;;
49858;SDS011;35756;52.346;13.622;2023-05-07T13:25:30;1999.90;;;999.90;;
49858;SDS011;35756;52.346;13.622;2023-05-07T13:27:59;1999.90;;;999.90;;
49858;SDS011;35756;52.346;13.622;2023-05-07T13:30:24;1999.90;;;999.90;;
49858;SDS011;35756;52.346;13.622;2023-05-07T13:32:50;1934.50;;;925.70;;
49858;SDS011;35756;52.346;13.622;2023-05-07T13:35:17;1999.90;;;999.90;;
49858;SDS011;35756;52.346;13.622;2023-05-07T13:37:42;1999.90;;;999.90;;
49858;SDS011;35756;52.346;13.622;2023-05-07T13:40:07;1999.90;;;999.90;;
49858;SDS011;35756;52.346;13.622;2023-05-07T13:42:33;1999.90;;;999.90;;
49858;SDS011;35756;52.346;13.622;2023-05-07T13:44:58;1999.90;;;999.90;;
49858;SDS011;35756;52.346;13.622;2023-05-07T13:47:23;1990.63;;;999.90;;
49858;SDS011;35756;52.346;13.622;2023-05-07T13:49:49;1995.57;;;999.90;;
49858;SDS011;35756;52.346;13.622;2023-05-07T13:52:14;1999.90;;;999.90;;
49858;SDS011;35756;52.346;13.622;2023-05-07T13:54:40;1795.88;;;802.55;;